createdAt,value
2023-02-23T00:01:54.160Z,30.23
2023-02-23T00:04:21.372Z,30.13
2023-02-23T00:06:48.205Z,30.70
2023-02-23T00:09:35.095Z,31.85
2023-02-23T00:12:07.632Z,31.38
2023-02-23T00:14:35.242Z,31.02
2023-02-23T00:17:01.901Z,30.65
2023-02-23T00:19:28.545Z,31.17
2023-02-23T00:21:58.768Z,30.77
2023-02-23T00:24:27.032Z,31.08
2023-02-23T00:26:53.765Z,30.15
2023-02-23T00:29:22.679Z,33.10
2023-02-23T00:31:50.351Z,32.70
2023-02-23T00:34:22.010Z,32.08
2023-02-23T00:36:55.119Z,31.67
2023-02-23T00:39:24.221Z,31.83
2023-02-23T00:41:52.518Z,31.58
2023-02-23T00:44:21.838Z,32.85
2023-02-23T00:46:51.888Z,30.52
2023-02-23T00:49:20.556Z,32.83
2023-02-23T00:51:47.305Z,30.58
2023-02-23T00:54:15.366Z,32.47
2023-02-23T00:56:42.261Z,31.15
2023-02-23T00:59:09.641Z,32.80
2023-02-23T01:01:37.674Z,33.05
2023-02-23T01:04:05.698Z,31.95
2023-02-23T01:06:32.440Z,32.95
2023-02-23T01:08:59.251Z,33.28
2023-02-23T01:11:28.107Z,32.53
2023-02-23T01:13:59.878Z,32.17
2023-02-23T01:16:31.758Z,33.63
2023-02-23T01:19:02.243Z,33.50
2023-02-23T01:21:35.058Z,35.92
2023-02-23T01:24:02.367Z,34.22
2023-02-23T01:26:34.430Z,32.60
2023-02-23T01:29:13.236Z,34.35
2023-02-23T01:31:42.052Z,34.22
2023-02-23T01:34:11.872Z,34.80
2023-02-23T01:36:40.432Z,34.05
2023-02-23T01:39:14.922Z,36.25
2023-02-23T01:41:44.820Z,33.45
2023-02-23T01:44:14.527Z,33.70
2023-02-23T01:46:46.184Z,33.88
2023-02-23T01:49:25.671Z,33.15
2023-02-23T01:51:57.487Z,32.63
2023-02-23T01:54:50.445Z,33.97
2023-02-23T01:57:18.558Z,32.75
2023-02-23T01:59:49.410Z,33.38
2023-02-23T02:02:21.153Z,34.22
2023-02-23T02:04:52.016Z,34.28
2023-02-23T02:07:26.622Z,33.03
2023-02-23T02:10:12.249Z,32.63
2023-02-23T02:12:44.242Z,33.60
2023-02-23T02:15:17.309Z,34.50
2023-02-23T02:18:03.349Z,36.80
2023-02-23T02:20:55.465Z,32.50
2023-02-23T02:24:00.857Z,30.58
2023-02-23T02:26:30.319Z,33.78
2023-02-23T02:29:06.001Z,34.15
2023-02-23T02:32:07.937Z,34.15
2023-02-23T02:35:03.934Z,33.97
2023-02-23T02:38:01.713Z,37.65
2023-02-23T02:40:40.796Z,35.28
2023-02-23T02:43:24.559Z,37.78
2023-02-23T02:46:06.107Z,35.28
2023-02-23T02:48:59.530Z,34.17
2023-02-23T02:51:44.869Z,34.90
2023-02-23T02:54:23.593Z,36.90
2023-02-23T02:56:50.826Z,33.88
2023-02-23T02:59:38.119Z,35.35
2023-02-23T03:02:24.618Z,34.60
2023-02-23T03:05:10.058Z,34.13
2023-02-23T03:08:01.446Z,34.42
2023-02-23T03:11:06.426Z,33.55
2023-02-23T03:14:11.531Z,36.50
2023-02-23T03:17:14.939Z,34.75
2023-02-23T03:20:38.682Z,34.45
2023-02-23T03:23:52.144Z,35.67
2023-02-23T03:27:13.929Z,35.05
2023-02-23T03:30:02.184Z,34.08
2023-02-23T03:32:59.868Z,32.92
2023-02-23T03:36:11.659Z,36.00
2023-02-23T03:39:01.699Z,36.35
2023-02-23T03:41:47.886Z,36.13
2023-02-23T03:44:39.677Z,36.08
2023-02-23T03:47:26.009Z,34.08
2023-02-23T03:50:13.026Z,36.13
2023-02-23T03:53:06.025Z,36.60
2023-02-23T03:55:54.244Z,37.15
2023-02-23T03:58:49.697Z,34.08
2023-02-23T04:01:36.985Z,36.20
2023-02-23T04:04:23.744Z,33.40
2023-02-23T04:07:09.518Z,33.75
2023-02-23T04:09:55.202Z,35.13
2023-02-23T04:12:45.483Z,34.97
2023-02-23T04:15:13.221Z,35.58
2023-02-23T04:17:40.325Z,36.53
2023-02-23T04:20:07.458Z,36.08
2023-02-23T04:22:35.521Z,37.50
2023-02-23T04:25:02.243Z,36.00
2023-02-23T04:27:28.958Z,34.83
2023-02-23T04:29:55.648Z,36.05
2023-02-23T04:32:22.451Z,38.25
2023-02-23T04:34:49.798Z,40.00
2023-02-23T04:37:16.558Z,35.72
2023-02-23T04:39:48.483Z,36.78
2023-02-23T04:42:19.012Z,39.40
2023-02-23T04:44:45.694Z,37.42
2023-02-23T04:47:14.480Z,38.38
2023-02-23T04:49:41.140Z,37.72
2023-02-23T04:52:07.877Z,37.03
2023-02-23T04:54:38.077Z,37.92
2023-02-23T04:57:04.918Z,37.85
2023-02-23T04:59:32.413Z,38.10
2023-02-23T05:01:59.133Z,37.50
2023-02-23T05:04:25.788Z,36.22
2023-02-23T05:06:53.097Z,37.17
2023-02-23T05:09:19.783Z,37.50
2023-02-23T05:11:46.550Z,37.35
2023-02-23T05:14:13.192Z,37.58
2023-02-23T05:16:40.032Z,38.20
2023-02-23T05:19:06.730Z,38.05
2023-02-23T05:21:33.380Z,38.28
2023-02-23T05:24:00.263Z,36.22
2023-02-23T05:26:26.918Z,35.35
2023-02-23T05:28:54.886Z,36.85
2023-02-23T05:31:21.766Z,36.10
2023-02-23T05:33:48.685Z,38.95
2023-02-23T05:36:17.471Z,38.80
2023-02-23T05:38:45.747Z,38.80
2023-02-23T05:41:15.050Z,37.25
2023-02-23T05:43:42.161Z,40.35
2023-02-23T05:46:10.298Z,39.47
2023-02-23T05:48:37.389Z,38.08
2023-02-23T05:51:05.267Z,38.13
2023-02-23T05:53:32.211Z,38.53
2023-02-23T05:55:59.244Z,40.20
2023-02-23T05:58:25.905Z,39.63
2023-02-23T06:00:52.752Z,37.63
2023-02-23T06:03:19.671Z,36.75
2023-02-23T06:05:51.721Z,38.15
2023-02-23T06:08:18.360Z,40.58
2023-02-23T06:10:45.010Z,39.85
2023-02-23T06:13:11.906Z,40.33
2023-02-23T06:15:38.678Z,38.70
2023-02-23T06:18:06.091Z,39.05
2023-02-23T06:20:32.720Z,37.67
2023-02-23T06:22:59.349Z,36.75
2023-02-23T06:25:25.963Z,38.03
2023-02-23T06:27:52.999Z,39.10
2023-02-23T06:30:19.833Z,39.92
2023-02-23T06:32:46.521Z,40.97
2023-02-23T06:35:17.456Z,38.53
2023-02-23T06:37:44.215Z,39.33
2023-02-23T06:40:11.390Z,39.03
2023-02-23T06:42:38.050Z,39.35
2023-02-23T06:45:05.547Z,41.03
2023-02-23T06:47:32.287Z,38.25
2023-02-23T06:50:00.024Z,40.00
2023-02-23T06:52:26.706Z,38.78
2023-02-23T06:54:53.309Z,39.67
2023-02-23T06:57:21.528Z,41.47
2023-02-23T06:59:48.301Z,42.00
2023-02-23T07:02:15.053Z,43.05
2023-02-23T07:04:41.765Z,40.92
2023-02-23T07:07:08.655Z,40.42
2023-02-23T07:09:35.278Z,41.78
2023-02-23T07:12:02.001Z,41.15
2023-02-23T07:14:28.602Z,39.53
2023-02-23T07:16:55.234Z,43.70
2023-02-23T07:19:21.950Z,39.72
2023-02-23T07:21:48.709Z,41.10
2023-02-23T07:24:15.354Z,39.75
2023-02-23T07:26:45.769Z,43.33
2023-02-23T07:29:12.594Z,41.08
2023-02-23T07:31:40.148Z,42.25
2023-02-23T07:34:07.870Z,41.88
2023-02-23T07:36:35.181Z,41.33
2023-02-23T07:39:02.698Z,40.80
2023-02-23T07:41:29.401Z,39.83
2023-02-23T07:43:56.124Z,40.63
2023-02-23T07:46:22.762Z,39.80
2023-02-23T07:48:49.496Z,40.10
2023-02-23T07:51:17.606Z,39.60
2023-02-23T07:53:44.920Z,40.05
2023-02-23T07:56:12.190Z,41.63
2023-02-23T07:58:40.516Z,40.63
2023-02-23T08:01:08.367Z,39.10
2023-02-23T08:03:35.048Z,41.00
2023-02-23T08:06:01.755Z,41.67
2023-02-23T08:08:28.544Z,40.60
2023-02-23T08:11:02.740Z,41.67
2023-02-23T08:13:29.916Z,41.67
2023-02-23T08:15:56.905Z,40.40
2023-02-23T08:18:23.696Z,42.38
2023-02-23T08:20:50.446Z,38.50
2023-02-23T08:23:18.234Z,42.35
2023-02-23T08:25:44.869Z,40.80
2023-02-23T08:28:12.230Z,38.80
2023-02-23T08:30:39.673Z,39.30
2023-02-23T08:33:07.275Z,39.38
2023-02-23T08:35:33.959Z,38.95
2023-02-23T08:38:00.587Z,36.70
2023-02-23T08:40:27.237Z,38.78
2023-02-23T08:42:53.931Z,38.80
2023-02-23T08:45:20.736Z,40.85
2023-02-23T08:47:47.472Z,39.28
2023-02-23T08:50:14.531Z,38.28
2023-02-23T08:52:41.410Z,37.92
2023-02-23T08:55:08.590Z,37.55
2023-02-23T08:57:36.000Z,42.13
2023-02-23T09:00:03.889Z,39.38
2023-02-23T09:02:30.630Z,39.85
2023-02-23T09:04:58.255Z,36.83
2023-02-23T09:07:25.662Z,38.85
2023-02-23T09:09:59.058Z,39.38
2023-02-23T09:12:25.745Z,37.13
2023-02-23T09:14:53.847Z,39.28
2023-02-23T09:17:22.931Z,36.72
2023-02-23T09:19:50.882Z,39.35
2023-02-23T09:22:18.440Z,35.78
2023-02-23T09:24:45.495Z,37.60
2023-02-23T09:27:12.964Z,36.67
2023-02-23T09:29:43.299Z,37.00
2023-02-23T09:32:11.415Z,36.53
2023-02-23T09:34:38.119Z,35.17
2023-02-23T09:37:05.999Z,35.03
2023-02-23T09:39:38.577Z,38.35
2023-02-23T09:42:37.621Z,38.35
2023-02-23T09:45:10.212Z,38.50
2023-02-23T09:47:40.569Z,36.63
2023-02-23T09:50:18.107Z,35.60
2023-02-23T09:52:47.754Z,36.53
2023-02-23T09:55:14.792Z,38.95
2023-02-23T09:57:46.215Z,37.92
2023-02-23T10:00:25.287Z,37.75
2023-02-23T10:03:14.291Z,37.33
2023-02-23T10:05:44.145Z,35.00
2023-02-23T10:08:21.047Z,35.17
2023-02-23T10:10:49.866Z,36.47
2023-02-23T10:13:27.575Z,38.25
2023-02-23T10:15:55.983Z,38.78
2023-02-23T10:18:45.265Z,39.50
2023-02-23T10:21:24.937Z,38.30
2023-02-23T10:23:54.338Z,38.47
2023-02-23T10:26:47.296Z,39.45
2023-02-23T10:29:33.186Z,35.75
2023-02-23T10:32:22.562Z,36.17
2023-02-23T10:34:54.778Z,32.63
2023-02-23T10:37:23.439Z,35.00
2023-02-23T10:39:51.448Z,33.00
2023-02-23T10:42:23.509Z,32.85
2023-02-23T10:44:50.505Z,34.45
2023-02-23T10:47:20.745Z,36.72
2023-02-23T10:49:48.695Z,33.05
2023-02-23T10:52:18.852Z,28.75
2023-02-23T10:54:47.739Z,29.52
2023-02-23T10:57:30.261Z,29.20
2023-02-23T11:00:07.558Z,25.83
2023-02-23T11:02:36.375Z,26.35
2023-02-23T11:05:04.068Z,25.27
2023-02-23T11:07:32.411Z,29.08
2023-02-23T11:10:00.711Z,26.95
2023-02-23T11:12:41.967Z,25.77
2023-02-23T11:15:49.110Z,27.33
2023-02-23T11:18:23.140Z,22.60
2023-02-23T11:20:50.005Z,20.13
2023-02-23T11:23:29.628Z,19.35
2023-02-23T11:26:01.909Z,18.45
2023-02-23T11:28:37.561Z,18.98
2023-02-23T11:31:12.953Z,18.40
2023-02-23T11:33:40.159Z,17.17
2023-02-23T11:36:49.885Z,17.17
2023-02-23T11:39:22.809Z,17.60
2023-02-23T11:42:19.770Z,16.05
2023-02-23T11:45:05.028Z,15.32
2023-02-23T11:47:33.981Z,15.23
2023-02-23T11:50:01.665Z,15.23
2023-02-23T11:52:29.317Z,15.32
2023-02-23T11:54:58.458Z,15.55
2023-02-23T11:57:30.254Z,17.00
2023-02-23T11:59:58.223Z,15.90
2023-02-23T12:02:35.255Z,16.42
2023-02-23T12:05:17.980Z,15.80
2023-02-23T12:08:02.528Z,15.35
2023-02-23T12:10:58.697Z,14.75
2023-02-23T12:13:34.469Z,15.52
2023-02-23T12:16:21.661Z,14.75
2023-02-23T12:19:28.663Z,15.25
2023-02-23T12:22:12.371Z,15.98
2023-02-23T12:24:56.882Z,16.17
2023-02-23T12:27:27.179Z,15.40
2023-02-23T12:30:08.646Z,14.80
2023-02-23T12:32:45.913Z,16.70
2023-02-23T12:35:20.320Z,15.52
2023-02-23T12:38:27.633Z,15.38
2023-02-23T12:41:00.094Z,15.20
2023-02-23T12:43:37.706Z,16.17
2023-02-23T12:46:43.667Z,15.65
2023-02-23T12:49:18.169Z,15.10
2023-02-23T12:51:51.661Z,15.60
2023-02-23T12:54:18.810Z,16.30
2023-02-23T12:56:51.557Z,14.85
2023-02-23T12:59:32.686Z,14.68
2023-02-23T13:02:01.752Z,15.43
2023-02-23T13:04:37.754Z,14.55
2023-02-23T13:07:21.707Z,14.35
2023-02-23T13:10:10.469Z,13.50
2023-02-23T13:12:46.146Z,13.77
2023-02-23T13:15:44.833Z,15.65
2023-02-23T13:18:34.122Z,15.02
2023-02-23T13:21:23.110Z,17.55
2023-02-23T13:24:03.884Z,16.08
2023-02-23T13:26:46.073Z,14.73
2023-02-23T13:29:34.714Z,13.85
2023-02-23T13:32:02.990Z,15.30
2023-02-23T13:34:41.246Z,11.32
2023-02-23T13:37:08.451Z,13.77
2023-02-23T13:39:45.334Z,13.25
2023-02-23T13:42:31.009Z,13.90
2023-02-23T13:45:40.588Z,13.85
2023-02-23T13:48:55.227Z,14.43
2023-02-23T13:51:35.183Z,14.65
2023-02-23T13:54:07.746Z,15.13
2023-02-23T13:56:47.939Z,14.35
2023-02-23T13:59:20.650Z,13.93
2023-02-23T14:01:50.152Z,14.07
2023-02-23T14:04:25.450Z,13.80
2023-02-23T14:07:04.980Z,15.75
2023-02-23T14:09:37.631Z,12.48
2023-02-23T14:12:10.396Z,14.27
2023-02-23T14:14:37.351Z,14.77
2023-02-23T14:17:16.128Z,13.73
2023-02-23T14:20:06.699Z,14.25
2023-02-23T14:22:34.345Z,14.07
2023-02-23T14:25:35.305Z,14.85
2023-02-23T14:28:15.608Z,14.93
2023-02-23T14:30:51.200Z,14.48
2023-02-23T14:33:36.738Z,13.90
2023-02-23T14:36:25.791Z,15.43
2023-02-23T14:39:07.788Z,13.88
2023-02-23T14:41:39.851Z,14.30
2023-02-23T14:44:27.161Z,13.88
2023-02-23T14:47:14.541Z,13.75
2023-02-23T14:49:47.279Z,13.93
2023-02-23T14:52:24.936Z,14.07
2023-02-23T14:54:52.536Z,14.38
2023-02-23T14:57:24.947Z,14.30
2023-02-23T15:00:03.365Z,14.23
2023-02-23T15:02:30.859Z,14.60
2023-02-23T15:04:57.762Z,14.27
2023-02-23T15:07:30.988Z,14.05
2023-02-23T15:09:59.311Z,15.07
2023-02-23T15:12:34.453Z,14.30
2023-02-23T15:15:02.897Z,13.80
2023-02-23T15:17:32.141Z,14.50
2023-02-23T15:20:15.911Z,15.05
2023-02-23T15:22:46.860Z,15.70
2023-02-23T15:25:23.860Z,14.40
2023-02-23T15:27:51.988Z,14.20
2023-02-23T15:30:18.872Z,13.85
2023-02-23T15:32:45.962Z,13.85
2023-02-23T15:35:13.214Z,14.82
2023-02-23T15:40:22.694Z,15.52
2023-02-23T15:42:51.970Z,15.57
2023-02-23T15:45:46.637Z,15.10
2023-02-23T15:48:18.526Z,14.55
2023-02-23T15:50:57.477Z,14.63
2023-02-23T15:53:34.317Z,13.23
2023-02-23T15:56:14.342Z,14.85
2023-02-23T15:58:56.440Z,15.60
2023-02-23T16:01:28.838Z,15.43
2023-02-23T16:04:07.254Z,15.77
2023-02-23T16:06:41.698Z,15.48
2023-02-23T16:09:13.516Z,15.07
2023-02-23T16:11:41.115Z,15.02
2023-02-23T16:14:15.354Z,13.80
2023-02-23T16:16:42.852Z,14.73
2023-02-23T16:19:14.434Z,13.65
2023-02-23T16:21:41.156Z,14.70
2023-02-23T16:24:13.458Z,14.70
2023-02-23T16:26:46.277Z,13.30
2023-02-23T16:29:21.122Z,14.23
2023-02-23T16:31:53.871Z,13.77
2023-02-23T16:34:28.009Z,13.68
2023-02-23T16:37:00.917Z,13.88
2023-02-23T16:39:31.996Z,14.65
2023-02-23T16:41:58.998Z,15.13
2023-02-23T16:44:34.386Z,14.75
2023-02-23T16:47:08.239Z,15.15
2023-02-23T16:49:34.876Z,14.82
2023-02-23T16:52:01.652Z,14.93
2023-02-23T16:54:28.383Z,15.85
2023-02-23T16:56:55.384Z,15.43
2023-02-23T16:59:23.137Z,14.77
2023-02-23T17:01:50.776Z,15.02
2023-02-23T17:04:19.078Z,13.75
2023-02-23T17:06:47.302Z,14.27
2023-02-23T17:09:13.929Z,14.10
2023-02-23T17:11:41.328Z,13.98
2023-02-23T17:14:07.969Z,15.27
2023-02-23T17:16:35.103Z,14.32
2023-02-23T17:19:01.987Z,12.77
2023-02-23T17:21:28.703Z,13.27
2023-02-23T17:24:02.562Z,15.35
2023-02-23T17:26:29.253Z,14.25
2023-02-23T17:28:55.895Z,14.93
2023-02-23T17:31:25.626Z,15.05
2023-02-23T17:33:55.130Z,15.60
2023-02-23T17:36:23.859Z,14.73
2023-02-23T17:38:50.724Z,15.13
2023-02-23T17:41:19.639Z,15.98
2023-02-23T17:43:46.518Z,15.00
2023-02-23T17:46:13.424Z,13.95
2023-02-23T17:48:44.329Z,16.13
2023-02-23T17:51:12.737Z,14.48
2023-02-23T17:53:39.947Z,14.55
2023-02-23T17:56:07.954Z,14.80
2023-02-23T17:58:35.491Z,15.15
2023-02-23T18:01:04.630Z,16.65
2023-02-23T18:03:33.644Z,15.35
2023-02-23T18:06:04.154Z,16.20
2023-02-23T18:08:31.306Z,14.25
2023-02-23T18:10:58.513Z,14.18
2023-02-23T18:13:25.841Z,18.05
2023-02-23T18:15:54.604Z,15.25
2023-02-23T18:18:23.919Z,16.27
2023-02-23T18:20:52.223Z,16.60
2023-02-23T18:23:19.957Z,16.80
2023-02-23T18:25:47.369Z,15.23
2023-02-23T18:28:14.638Z,15.90
2023-02-23T18:30:42.010Z,16.25
2023-02-23T18:33:09.185Z,15.50
2023-02-23T18:35:42.157Z,17.70
2023-02-23T18:38:13.995Z,16.10
2023-02-23T18:40:40.875Z,16.38
2023-02-23T18:43:08.280Z,16.90
2023-02-23T18:45:35.238Z,16.13
2023-02-23T18:48:01.990Z,16.90
2023-02-23T18:50:28.718Z,15.90
2023-02-23T18:52:56.580Z,16.00
2023-02-23T18:55:23.555Z,14.68
2023-02-23T18:57:52.579Z,15.52
2023-02-23T19:00:20.027Z,18.35
2023-02-23T19:02:46.717Z,19.85
2023-02-23T19:05:14.398Z,19.38
2023-02-23T19:07:41.527Z,16.48
2023-02-23T19:10:12.169Z,16.83
2023-02-23T19:12:39.652Z,17.05
2023-02-23T19:15:07.359Z,17.33
2023-02-23T19:17:35.753Z,16.00
2023-02-23T19:20:02.455Z,15.75
2023-02-23T19:22:29.819Z,16.80
2023-02-23T19:24:56.436Z,16.83
2023-02-23T19:27:25.888Z,16.80
2023-02-23T19:29:52.532Z,17.00
2023-02-23T19:32:19.391Z,15.80
2023-02-23T19:34:48.914Z,17.30
2023-02-23T19:37:15.532Z,17.45
2023-02-23T19:39:42.215Z,18.73
2023-02-23T19:42:09.235Z,18.85
2023-02-23T19:44:35.956Z,18.08
2023-02-23T19:47:02.599Z,14.15
2023-02-23T19:49:29.330Z,16.20
2023-02-23T19:51:57.710Z,15.02
2023-02-23T19:54:26.109Z,14.45
2023-02-23T19:56:53.106Z,14.15
2023-02-23T19:59:19.745Z,14.85
2023-02-23T20:01:46.368Z,15.25
2023-02-23T20:04:13.159Z,15.85
2023-02-23T20:06:44.881Z,15.52
2023-02-23T20:09:11.798Z,14.45
2023-02-23T20:11:38.504Z,16.33
2023-02-23T20:14:07.511Z,14.43
2023-02-23T20:16:34.821Z,15.18
2023-02-23T20:19:01.700Z,15.35
2023-02-23T20:21:30.514Z,13.95
2023-02-23T20:23:57.409Z,16.50
2023-02-23T20:26:26.984Z,15.95
2023-02-23T20:28:54.346Z,16.40
2023-02-23T20:31:26.853Z,17.50
2023-02-23T20:33:54.883Z,15.30
2023-02-23T20:36:22.582Z,15.70
2023-02-23T20:38:49.306Z,15.60
2023-02-23T20:41:17.271Z,16.45
2023-02-23T20:43:44.071Z,14.00
2023-02-23T20:46:15.725Z,15.43
2023-02-23T20:48:42.739Z,8.88
2023-02-23T20:51:12.955Z,7.50
2023-02-23T20:53:40.756Z,6.60
2023-02-23T20:56:08.709Z,5.82
2023-02-23T20:58:35.432Z,6.97
2023-02-23T21:01:06.244Z,6.22
2023-02-23T21:03:34.038Z,6.00
2023-02-23T21:06:01.096Z,5.13
2023-02-23T21:08:28.784Z,5.93
2023-02-23T21:10:55.731Z,6.65
2023-02-23T21:13:23.268Z,6.10
2023-02-23T21:16:00.928Z,7.00
2023-02-23T21:18:28.512Z,6.95
2023-02-23T21:20:57.393Z,8.38
2023-02-23T21:23:25.136Z,7.70
2023-02-23T21:25:53.206Z,7.85
2023-02-23T21:28:20.702Z,7.70
2023-02-23T21:30:47.590Z,8.35
2023-02-23T21:33:14.577Z,7.18
2023-02-23T21:35:41.201Z,7.43
2023-02-23T21:38:08.258Z,7.18
2023-02-23T21:40:35.761Z,5.43
2023-02-23T21:43:06.604Z,5.93
2023-02-23T21:45:33.298Z,6.35
2023-02-23T21:47:59.982Z,5.57
2023-02-23T21:50:26.816Z,6.13
2023-02-23T21:52:55.994Z,5.13
2023-02-23T21:55:22.949Z,4.38
2023-02-23T21:57:50.768Z,4.75
2023-02-23T22:00:19.223Z,5.13
2023-02-23T22:02:46.776Z,5.20
2023-02-23T22:05:15.124Z,4.78
2023-02-23T22:07:41.974Z,4.53
2023-02-23T22:10:08.931Z,3.90
2023-02-23T22:12:35.550Z,4.80
2023-02-23T22:15:12.752Z,3.88
2023-02-23T22:17:39.428Z,4.25
2023-02-23T22:20:11.931Z,4.32
2023-02-23T22:22:38.533Z,4.20
2023-02-23T22:25:06.879Z,3.92
2023-02-23T22:27:33.557Z,3.55
2023-02-23T22:30:01.459Z,3.95
2023-02-23T22:32:32.552Z,3.65
2023-02-23T22:35:00.289Z,3.35
2023-02-23T22:37:30.010Z,3.58
2023-02-23T22:39:57.912Z,2.83
2023-02-23T22:42:24.572Z,2.63
2023-02-23T22:44:51.378Z,2.80
2023-02-23T22:47:18.139Z,3.03
2023-02-23T22:49:47.482Z,2.92
2023-02-23T22:52:14.237Z,3.47
2023-02-23T22:54:43.693Z,3.58
2023-02-23T22:57:10.382Z,3.92
2023-02-23T22:59:37.119Z,5.20
2023-02-23T23:02:04.589Z,4.32
2023-02-23T23:04:34.247Z,3.72
2023-02-23T23:07:01.162Z,3.20
2023-02-23T23:09:28.731Z,4.63
2023-02-23T23:11:56.653Z,4.63
2023-02-23T23:14:23.516Z,5.45
2023-02-23T23:16:50.260Z,5.32
2023-02-23T23:19:26.248Z,5.63
2023-02-23T23:21:55.588Z,5.03
2023-02-23T23:24:25.059Z,4.88
2023-02-23T23:26:55.522Z,4.78
2023-02-23T23:29:23.114Z,4.90
2023-02-23T23:31:51.662Z,6.07
2023-02-23T23:34:21.639Z,5.55
2023-02-23T23:36:51.950Z,5.88
2023-02-23T23:39:22.072Z,4.65
2023-02-23T23:41:49.373Z,5.05
2023-02-23T23:44:17.439Z,5.65
2023-02-23T23:46:45.341Z,4.88
2023-02-23T23:49:25.444Z,5.22
2023-02-23T23:51:56.202Z,4.68
2023-02-23T23:54:29.260Z,4.72
2023-02-23T23:56:56.851Z,5.88
2023-02-23T23:59:25.303Z,6.15
